createdAt,value
2017-07-06T00:01:25.368Z,88.40
2017-07-06T00:03:52.965Z,89.10
2017-07-06T00:06:20.515Z,89.10
2017-07-06T00:08:48.040Z,89.90
2017-07-06T00:11:15.865Z,88.50
2017-07-06T00:13:43.374Z,89.60
2017-07-06T00:16:10.896Z,89.20
2017-07-06T00:18:38.457Z,88.50
2017-07-06T00:21:06.049Z,87.70
2017-07-06T00:23:33.552Z,88.10
2017-07-06T00:26:01.431Z,87.90
2017-07-06T00:28:28.936Z,88.10
2017-07-06T00:30:56.444Z,87.90
2017-07-06T00:33:24.344Z,89.00
2017-07-06T00:35:51.856Z,89.80
2017-07-06T00:38:19.374Z,90.10
2017-07-06T00:40:46.980Z,90.40
2017-07-06T00:43:14.492Z,90.70
2017-07-06T00:45:41.999Z,90.90
2017-07-06T00:48:09.557Z,90.60
2017-07-06T00:50:37.100Z,90.80
2017-07-06T00:53:04.682Z,91.40
2017-07-06T00:55:32.293Z,91.30
2017-07-06T00:57:59.876Z,91.50
2017-07-06T01:00:27.432Z,91.90
2017-07-06T01:02:55.003Z,92.00
2017-07-06T01:05:23.551Z,91.60
2017-07-06T01:07:51.063Z,91.80
2017-07-06T01:10:18.816Z,91.90
2017-07-06T01:12:48.140Z,91.50
2017-07-06T01:15:15.667Z,91.20
2017-07-06T01:17:43.288Z,91.20
2017-07-06T01:20:11.954Z,91.40
2017-07-06T01:22:39.540Z,91.10
2017-07-06T01:25:07.335Z,91.20
2017-07-06T01:27:35.624Z,91.30
2017-07-06T01:30:03.143Z,91.40
2017-07-06T01:32:30.693Z,91.00
2017-07-06T01:34:58.279Z,91.60
2017-07-06T01:37:25.847Z,91.50
2017-07-06T01:39:53.403Z,91.70
2017-07-06T01:42:21.368Z,91.80
2017-07-06T01:44:48.876Z,92.00
2017-07-06T01:47:16.388Z,91.90
2017-07-06T01:49:44.047Z,91.70
2017-07-06T01:52:11.555Z,91.50
2017-07-06T01:54:39.060Z,91.90
2017-07-06T01:57:06.880Z,92.20
2017-07-06T01:59:34.393Z,91.90
2017-07-06T02:02:01.900Z,92.20
2017-07-06T02:04:29.751Z,92.30
2017-07-06T02:06:57.296Z,92.80
2017-07-06T02:09:24.932Z,93.00
2017-07-06T02:11:52.903Z,92.90
2017-07-06T02:14:20.586Z,92.90
2017-07-06T02:16:48.127Z,92.50
2017-07-06T02:19:16.004Z,92.90
2017-07-06T02:21:43.515Z,93.00
2017-07-06T02:24:11.024Z,93.50
2017-07-06T02:26:38.937Z,93.60
2017-07-06T02:29:06.446Z,93.40
2017-07-06T02:31:34.004Z,93.20
2017-07-06T02:34:01.961Z,93.10
2017-07-06T02:36:29.664Z,93.10
2017-07-06T02:38:57.215Z,93.00
2017-07-06T02:41:24.963Z,92.90
2017-07-06T02:43:52.523Z,92.70
2017-07-06T02:46:20.039Z,92.70
2017-07-06T02:48:47.904Z,92.70
2017-07-06T02:51:15.709Z,92.90
2017-07-06T02:53:43.224Z,93.20
2017-07-06T02:56:11.437Z,93.00
2017-07-06T02:58:38.959Z,93.30
2017-07-06T03:01:06.472Z,93.40
2017-07-06T03:03:34.068Z,93.30
2017-07-06T03:06:01.584Z,93.40
2017-07-06T03:08:29.131Z,93.70
2017-07-06T03:10:57.024Z,94.10
2017-07-06T03:13:24.532Z,93.80
2017-07-06T03:15:52.044Z,93.70
2017-07-06T03:18:19.604Z,93.60
2017-07-06T03:20:47.116Z,93.70
2017-07-06T03:23:14.800Z,93.60
2017-07-06T03:25:42.375Z,93.70
2017-07-06T03:28:09.895Z,93.90
2017-07-06T03:30:37.469Z,93.60
2017-07-06T03:33:05.028Z,93.10
2017-07-06T03:35:32.563Z,93.50
2017-07-06T03:38:00.267Z,93.50
2017-07-06T03:40:27.824Z,93.80
2017-07-06T03:42:55.381Z,93.70
2017-07-06T03:45:22.861Z,93.70
2017-07-06T03:47:50.758Z,93.90
2017-07-06T03:50:18.271Z,94.30
2017-07-06T03:52:46.096Z,94.30
2017-07-06T03:55:13.956Z,94.40
2017-07-06T03:57:41.473Z,94.40
2017-07-06T04:00:09.020Z,94.40
2017-07-06T04:02:36.612Z,94.20
2017-07-06T04:05:04.445Z,94.30
2017-07-06T04:07:31.954Z,94.00
2017-07-06T04:10:00.018Z,93.50
2017-07-06T04:12:27.880Z,92.70
2017-07-06T04:14:55.453Z,92.50
2017-07-06T04:17:23.028Z,90.70
2017-07-06T04:19:50.535Z,86.60
2017-07-06T04:22:18.048Z,82.20
2017-07-06T04:24:45.832Z,79.30
2017-07-06T04:27:13.340Z,75.70
2017-07-06T04:29:40.855Z,72.90
2017-07-06T04:32:08.476Z,70.40
2017-07-06T04:34:35.984Z,67.60
2017-07-06T04:37:03.486Z,66.50
2017-07-06T04:39:31.253Z,66.00
2017-07-06T04:41:58.764Z,67.40
2017-07-06T04:44:26.277Z,65.20
2017-07-06T04:46:53.863Z,62.80
2017-07-06T04:49:21.368Z,61.00
2017-07-06T04:51:48.899Z,59.80
2017-07-06T04:54:16.481Z,60.60
2017-07-06T04:56:43.993Z,59.40
2017-07-06T04:59:11.517Z,59.30
2017-07-06T05:01:39.142Z,60.30
2017-07-06T05:04:06.644Z,59.90
2017-07-06T05:06:34.150Z,59.10
2017-07-06T05:09:01.712Z,59.00
2017-07-06T05:11:29.229Z,58.90
2017-07-06T05:13:56.737Z,57.80
2017-07-06T05:16:24.372Z,56.80
2017-07-06T05:18:51.894Z,55.10
2017-07-06T05:21:19.661Z,55.50
2017-07-06T05:23:47.168Z,55.70
2017-07-06T05:26:14.691Z,53.80
2017-07-06T05:28:42.248Z,52.70
2017-07-06T05:31:09.805Z,52.30
2017-07-06T05:33:38.081Z,54.10
2017-07-06T05:36:05.870Z,53.30
2017-07-06T05:38:33.502Z,52.20
2017-07-06T05:41:01.025Z,52.70
2017-07-06T05:43:28.720Z,52.30
2017-07-06T05:45:56.260Z,54.30
2017-07-06T05:48:23.812Z,54.20
2017-07-06T05:50:51.564Z,54.30
2017-07-06T05:53:19.075Z,54.50
2017-07-06T05:55:46.582Z,53.40
2017-07-06T05:58:14.640Z,52.50
2017-07-06T06:00:42.207Z,53.00
2017-07-06T06:03:10.019Z,52.80
2017-07-06T06:05:37.837Z,52.20
2017-07-06T06:08:05.560Z,50.40
2017-07-06T06:10:33.207Z,48.40
2017-07-06T06:13:03.839Z,46.40
2017-07-06T06:15:31.395Z,44.90
2017-07-06T06:17:59.159Z,45.30
2017-07-06T06:20:26.933Z,43.80
2017-07-06T06:22:54.610Z,44.00
2017-07-06T06:25:22.347Z,45.50
2017-07-06T06:27:50.241Z,44.90
2017-07-06T06:30:17.744Z,45.30
2017-07-06T06:32:45.261Z,45.00
2017-07-06T06:35:13.853Z,43.20
2017-07-06T06:37:41.610Z,42.90
2017-07-06T06:40:09.272Z,40.90
2017-07-06T06:42:36.988Z,40.00
2017-07-06T06:45:04.850Z,40.30
2017-07-06T06:47:33.548Z,38.90
2017-07-06T06:50:01.343Z,39.10
2017-07-06T06:52:29.008Z,38.50
2017-07-06T06:54:56.732Z,40.50
2017-07-06T06:57:24.654Z,40.30
2017-07-06T06:59:52.170Z,39.00
2017-07-06T07:02:19.925Z,38.30
2017-07-06T07:04:47.747Z,36.60
2017-07-06T07:07:15.491Z,37.30
2017-07-06T07:09:43.101Z,37.70
2017-07-06T07:12:10.685Z,38.00
2017-07-06T07:14:38.307Z,38.10
2017-07-06T07:17:05.845Z,36.90
2017-07-06T07:19:33.736Z,36.80
2017-07-06T07:22:01.550Z,37.10
2017-07-06T07:24:29.232Z,36.90
2017-07-06T07:26:57.333Z,37.00
2017-07-06T07:29:24.847Z,37.40
2017-07-06T07:31:52.356Z,37.50
2017-07-06T07:34:19.948Z,36.20
2017-07-06T07:36:47.460Z,35.90
2017-07-06T07:39:14.966Z,35.20
2017-07-06T07:41:42.511Z,35.40
2017-07-06T07:44:10.020Z,36.00
2017-07-06T07:46:37.972Z,36.40
2017-07-06T07:49:05.636Z,35.70
2017-07-06T07:51:33.368Z,36.90
2017-07-06T07:54:00.874Z,35.20
2017-07-06T07:56:28.524Z,34.70
2017-07-06T07:58:56.032Z,35.30
2017-07-06T08:01:23.844Z,35.00
2017-07-06T08:03:51.476Z,35.30
2017-07-06T08:06:18.996Z,35.80
2017-07-06T08:08:46.508Z,35.20
2017-07-06T08:11:14.396Z,32.90
2017-07-06T08:13:42.472Z,34.00
2017-07-06T08:16:10.056Z,33.30
2017-07-06T08:18:37.847Z,33.00
2017-07-06T08:21:05.659Z,34.20
2017-07-06T08:23:33.479Z,34.50
2017-07-06T08:26:01.065Z,34.90
2017-07-06T08:28:28.568Z,34.50
2017-07-06T08:30:56.084Z,32.00
2017-07-06T08:33:23.912Z,30.50
2017-07-06T08:35:51.445Z,28.70
2017-07-06T08:38:18.953Z,29.50
2017-07-06T08:40:46.764Z,29.40
2017-07-06T08:43:14.267Z,30.20
2017-07-06T08:45:41.785Z,30.70
2017-07-06T08:48:09.435Z,29.50
2017-07-06T08:50:36.943Z,29.70
2017-07-06T08:53:04.540Z,29.90
2017-07-06T08:55:32.308Z,29.70
2017-07-06T08:57:59.953Z,28.50
2017-07-06T09:00:27.708Z,28.20
2017-07-06T09:02:55.689Z,28.60
2017-07-06T09:05:24.298Z,27.70
2017-07-06T09:07:52.085Z,28.10
2017-07-06T09:10:19.644Z,27.90
2017-07-06T09:12:47.155Z,27.00
2017-07-06T09:15:14.704Z,25.90
2017-07-06T09:17:42.932Z,25.10
2017-07-06T09:20:10.495Z,26.00
2017-07-06T09:22:37.995Z,27.00
2017-07-06T09:25:05.558Z,27.50
2017-07-06T09:27:33.055Z,25.80
2017-07-06T09:30:00.558Z,25.60
2017-07-06T09:32:28.411Z,26.10
2017-07-06T09:34:55.924Z,26.10
2017-07-06T09:37:23.495Z,26.80
2017-07-06T09:39:51.061Z,25.80
2017-07-06T09:42:19.431Z,26.70
2017-07-06T09:44:46.939Z,25.40
2017-07-06T09:47:14.522Z,25.10
2017-07-06T09:49:42.408Z,23.30
2017-07-06T09:52:10.065Z,23.30
2017-07-06T09:54:38.208Z,23.20
2017-07-06T09:57:05.771Z,22.20
2017-07-06T09:59:33.788Z,22.20
2017-07-06T10:02:01.031Z,22.60
2017-07-06T10:04:28.988Z,23.70
2017-07-06T10:06:56.773Z,24.20
2017-07-06T10:09:24.320Z,23.30
2017-07-06T10:11:52.064Z,23.60
2017-07-06T10:14:19.569Z,22.40
2017-07-06T10:16:47.122Z,21.90
2017-07-06T10:19:15.211Z,22.20
2017-07-06T10:21:42.724Z,21.70
2017-07-06T10:24:10.232Z,21.60
2017-07-06T10:26:38.033Z,20.60
2017-07-06T10:29:05.561Z,20.70
2017-07-06T10:31:33.184Z,20.00
2017-07-06T10:34:00.767Z,20.10
2017-07-06T10:36:28.275Z,19.60
2017-07-06T10:38:55.784Z,20.00
2017-07-06T10:41:23.564Z,19.20
2017-07-06T10:43:51.064Z,19.20
2017-07-06T10:46:18.564Z,18.80
2017-07-06T10:48:46.452Z,21.00
2017-07-06T10:51:13.972Z,21.00
2017-07-06T10:53:41.475Z,21.10
2017-07-06T10:56:09.381Z,20.90
2017-07-06T10:58:36.889Z,20.40
2017-07-06T11:01:04.620Z,20.60
2017-07-06T11:03:32.880Z,20.70
2017-07-06T11:06:00.675Z,20.50
2017-07-06T11:08:28.323Z,19.60
2017-07-06T11:10:56.125Z,19.50
2017-07-06T11:13:23.890Z,19.90
2017-07-06T11:15:51.543Z,20.40
2017-07-06T11:18:19.673Z,19.60
2017-07-06T11:20:47.272Z,20.80
2017-07-06T11:23:14.863Z,21.70
2017-07-06T11:25:42.403Z,20.30
2017-07-06T11:28:10.551Z,20.10
2017-07-06T11:30:38.061Z,19.80
2017-07-06T11:33:05.607Z,19.90
2017-07-06T11:35:33.128Z,19.90
2017-07-06T11:38:00.768Z,21.10
2017-07-06T11:40:28.324Z,21.00
2017-07-06T11:42:55.850Z,21.80
2017-07-06T11:45:23.488Z,22.20
2017-07-06T11:47:51.256Z,22.00
2017-07-06T11:50:19.007Z,21.10
2017-07-06T11:52:46.669Z,20.30
2017-07-06T11:55:14.460Z,19.90
2017-07-06T11:57:42.180Z,19.60
2017-07-06T12:00:11.813Z,18.90
2017-07-06T12:02:39.606Z,19.80
2017-07-06T12:05:07.109Z,20.00
2017-07-06T12:07:34.612Z,19.70
2017-07-06T12:10:02.402Z,19.90
2017-07-06T12:12:30.246Z,19.40
2017-07-06T12:14:57.855Z,19.90
2017-07-06T12:17:25.831Z,20.40
2017-07-06T12:19:53.340Z,21.10
2017-07-06T12:22:20.841Z,20.90
2017-07-06T12:24:48.744Z,19.70
2017-07-06T12:27:16.603Z,18.70
2017-07-06T12:29:44.275Z,17.70
2017-07-06T12:32:12.056Z,17.80
2017-07-06T12:34:39.999Z,16.60
2017-07-06T12:37:07.554Z,16.60
2017-07-06T12:39:35.139Z,16.00
2017-07-06T12:42:02.855Z,15.70
2017-07-06T12:44:30.357Z,17.00
2017-07-06T12:46:57.942Z,17.00
2017-07-06T12:49:25.584Z,17.30
2017-07-06T12:51:53.169Z,18.00
2017-07-06T12:54:20.740Z,18.30
2017-07-06T12:56:48.268Z,18.40
2017-07-06T12:59:15.809Z,19.40
2017-07-06T13:01:43.641Z,20.30
2017-07-06T13:04:11.235Z,19.60
2017-07-06T13:06:38.740Z,20.20
2017-07-06T13:09:06.324Z,20.80
2017-07-06T13:11:33.828Z,21.40
2017-07-06T13:14:01.494Z,23.20
2017-07-06T13:16:29.056Z,23.40
2017-07-06T13:18:56.563Z,24.50
2017-07-06T13:21:24.061Z,24.30
2017-07-06T13:23:51.610Z,24.70
2017-07-06T13:26:19.148Z,25.40
2017-07-06T13:28:46.670Z,26.10
2017-07-06T13:31:14.495Z,26.50
2017-07-06T13:33:41.991Z,26.30
2017-07-06T13:36:09.507Z,27.00
2017-07-06T13:38:37.111Z,26.80
2017-07-06T13:41:04.612Z,29.30
2017-07-06T13:43:32.200Z,29.10
2017-07-06T13:46:00.247Z,29.90
2017-07-06T13:48:27.754Z,30.60
2017-07-06T13:50:55.260Z,31.30
2017-07-06T13:53:22.940Z,32.10
2017-07-06T13:55:50.453Z,33.80
2017-07-06T13:58:17.952Z,34.90
2017-07-06T14:00:45.605Z,37.20
2017-07-06T14:03:13.110Z,38.50
2017-07-06T14:05:40.617Z,36.00
2017-07-06T14:08:08.176Z,34.10
2017-07-06T14:10:35.685Z,35.30
2017-07-06T14:13:03.195Z,35.50
2017-07-06T14:15:30.785Z,34.60
2017-07-06T14:17:58.292Z,33.00
2017-07-06T14:20:26.430Z,33.40
2017-07-06T14:22:54.380Z,32.70
2017-07-06T14:25:22.037Z,33.40
2017-07-06T14:27:49.551Z,32.30
2017-07-06T14:30:17.392Z,31.80
2017-07-06T14:32:45.010Z,31.80
2017-07-06T14:35:12.818Z,30.70
2017-07-06T14:37:40.432Z,31.50
2017-07-06T14:40:07.951Z,34.00
2017-07-06T14:42:35.662Z,34.70
2017-07-06T14:45:03.960Z,34.20
2017-07-06T14:47:31.464Z,34.00
2017-07-06T14:49:58.980Z,34.40
2017-07-06T14:52:26.551Z,33.60
2017-07-06T14:54:54.048Z,31.70
2017-07-06T14:57:21.545Z,30.60
2017-07-06T14:59:49.359Z,31.00
2017-07-06T15:02:17.110Z,30.60
2017-07-06T15:04:44.613Z,31.40
2017-07-06T15:07:12.733Z,31.50
2017-07-06T15:09:40.237Z,30.70
2017-07-06T15:12:07.748Z,29.80
2017-07-06T15:14:36.007Z,29.20
2017-07-06T15:17:03.544Z,30.20
2017-07-06T15:19:31.052Z,31.10
2017-07-06T15:21:58.884Z,31.30
2017-07-06T15:24:26.683Z,31.20
2017-07-06T15:26:54.313Z,32.70
2017-07-06T15:29:22.062Z,32.70
2017-07-06T15:31:49.584Z,33.80
2017-07-06T15:34:17.212Z,34.00
2017-07-06T15:36:44.755Z,34.80
2017-07-06T15:39:12.263Z,34.60
2017-07-06T15:41:40.121Z,35.00
2017-07-06T15:44:07.686Z,34.40
2017-07-06T15:46:35.216Z,34.70
2017-07-06T15:49:02.775Z,35.30
2017-07-06T15:51:30.368Z,34.40
2017-07-06T15:53:58.004Z,33.50
2017-07-06T15:56:25.745Z,33.50
2017-07-06T15:58:53.529Z,33.10
2017-07-06T16:01:21.193Z,33.50
2017-07-06T16:03:49.541Z,32.70
2017-07-06T16:06:18.040Z,30.40
2017-07-06T16:08:45.817Z,29.40
2017-07-06T16:11:13.372Z,28.90
2017-07-06T16:13:40.949Z,29.90
2017-07-06T16:16:09.564Z,29.30
2017-07-06T16:18:37.822Z,29.10
2017-07-06T16:21:05.540Z,29.30
2017-07-06T16:23:34.539Z,29.40
2017-07-06T16:26:02.056Z,28.40
2017-07-06T16:28:29.576Z,29.20
2017-07-06T16:30:57.536Z,29.50
2017-07-06T16:33:25.316Z,29.90
2017-07-06T16:35:53.223Z,30.60
2017-07-06T16:38:21.093Z,31.10
2017-07-06T16:40:50.642Z,31.60
2017-07-06T16:43:18.463Z,30.80
2017-07-06T16:45:46.418Z,31.20
2017-07-06T16:48:14.148Z,31.00
2017-07-06T16:50:44.494Z,30.90
2017-07-06T16:53:12.327Z,30.20
2017-07-06T16:55:40.007Z,29.90
2017-07-06T16:58:07.755Z,29.90
2017-07-06T17:00:35.406Z,30.60
2017-07-06T17:03:02.928Z,31.10
2017-07-06T17:05:30.434Z,31.60
2017-07-06T17:07:58.046Z,31.50
2017-07-06T17:10:25.554Z,31.90
2017-07-06T17:12:53.113Z,30.90
2017-07-06T17:15:20.655Z,31.20
2017-07-06T17:17:48.160Z,31.30
2017-07-06T17:20:16.208Z,31.70
2017-07-06T17:22:43.803Z,31.80
2017-07-06T17:25:11.380Z,31.50
2017-07-06T17:27:38.891Z,30.90
2017-07-06T17:30:06.735Z,30.30
2017-07-06T17:32:34.243Z,31.10
2017-07-06T17:47:49.021Z,31.20
2017-07-06T17:50:16.556Z,31.00
2017-07-06T17:52:44.771Z,30.80
2017-07-06T17:55:12.340Z,31.50
2017-07-06T17:57:40.366Z,32.50
2017-07-06T18:00:08.055Z,33.50
2017-07-06T18:02:35.637Z,33.20
2017-07-06T18:05:04.651Z,33.90
2017-07-06T18:07:32.586Z,34.50
2017-07-06T18:10:01.239Z,35.40
2017-07-06T18:12:28.885Z,35.30
2017-07-06T18:14:56.592Z,35.70
2017-07-06T18:17:24.387Z,36.00
2017-07-06T18:19:52.061Z,36.80
2017-07-06T18:22:19.822Z,37.20
2017-07-06T18:24:48.440Z,39.20
2017-07-06T18:27:15.944Z,39.50
2017-07-06T18:29:43.565Z,39.50
2017-07-06T18:32:11.152Z,38.60
2017-07-06T18:34:38.670Z,38.80
2017-07-06T18:37:06.195Z,38.60
2017-07-06T18:39:34.337Z,38.60
2017-07-06T18:42:01.839Z,38.20
2017-07-06T18:44:29.351Z,37.40
2017-07-06T18:46:57.056Z,39.20
2017-07-06T18:49:24.551Z,39.30
2017-07-06T18:51:52.055Z,40.10
2017-07-06T18:54:19.761Z,39.80
2017-07-06T18:56:47.484Z,42.00
2017-07-06T18:59:15.308Z,42.60
2017-07-06T19:01:43.191Z,43.40
2017-07-06T19:04:10.730Z,43.80
2017-07-06T19:06:38.827Z,44.50
2017-07-06T19:09:06.493Z,45.10
2017-07-06T19:11:34.105Z,45.20
2017-07-06T19:14:01.616Z,46.30
2017-07-06T19:16:29.316Z,47.50
2017-07-06T19:18:56.872Z,48.50
2017-07-06T19:21:24.520Z,49.50
2017-07-06T19:23:52.203Z,49.30
2017-07-06T19:26:19.883Z,49.40
2017-07-06T19:28:47.407Z,51.00
2017-07-06T19:31:15.039Z,52.10
2017-07-06T19:33:42.552Z,52.40
2017-07-06T19:36:10.128Z,52.90
2017-07-06T19:38:37.921Z,54.20
2017-07-06T19:41:05.432Z,55.20
2017-07-06T19:43:32.941Z,55.20
2017-07-06T19:46:00.535Z,55.50
2017-07-06T19:48:28.072Z,56.00
2017-07-06T19:50:56.204Z,57.10
2017-07-06T19:53:23.822Z,57.50
2017-07-06T19:55:51.341Z,58.20
2017-07-06T19:58:18.867Z,59.20
2017-07-06T20:00:46.752Z,60.00
2017-07-06T20:03:14.257Z,59.80
2017-07-06T20:05:41.773Z,60.70
2017-07-06T20:08:09.827Z,61.50
2017-07-06T20:10:37.494Z,61.70
2017-07-06T20:13:05.227Z,62.10
2017-07-06T20:15:33.871Z,63.00
2017-07-06T20:18:01.776Z,62.80
2017-07-06T20:20:29.453Z,64.00
2017-07-06T20:22:57.031Z,64.30
2017-07-06T20:25:24.584Z,64.80
2017-07-06T20:27:52.257Z,65.50
2017-07-06T20:30:20.098Z,66.20
2017-07-06T20:32:47.622Z,66.10
2017-07-06T20:35:15.196Z,66.20
2017-07-06T20:37:42.920Z,66.60
2017-07-06T20:40:10.415Z,68.10
2017-07-06T20:42:38.660Z,69.20
2017-07-06T20:45:06.488Z,69.50
2017-07-06T20:47:34.347Z,70.10
2017-07-06T20:50:01.883Z,70.50
2017-07-06T20:52:29.438Z,70.60
2017-07-06T20:54:56.959Z,72.50
2017-07-06T20:57:24.594Z,72.50
2017-07-06T20:59:52.877Z,72.60
2017-07-06T21:05:01.518Z,73.10
2017-07-06T21:07:30.151Z,73.70
2017-07-06T21:09:58.005Z,74.00
2017-07-06T21:12:25.861Z,74.20
2017-07-06T21:14:53.502Z,74.40
2017-07-06T21:17:21.161Z,74.60
2017-07-06T21:19:49.355Z,74.80
2017-07-06T21:22:17.173Z,75.50
2017-07-06T21:24:44.677Z,75.80
2017-07-06T21:27:12.178Z,76.30
2017-07-06T21:29:40.055Z,76.30
2017-07-06T21:32:07.560Z,76.40
2017-07-06T21:34:35.103Z,76.50
2017-07-06T21:37:02.987Z,76.80
2017-07-06T21:39:30.597Z,76.50
2017-07-06T21:41:58.099Z,74.50
2017-07-06T21:44:26.007Z,73.70
2017-07-06T21:46:53.507Z,71.80
2017-07-06T21:49:21.695Z,69.80
2017-07-06T21:51:49.247Z,69.30
2017-07-06T21:54:16.809Z,68.70
2017-07-06T21:56:44.464Z,68.50
2017-07-06T21:59:12.021Z,69.40
2017-07-06T22:01:39.627Z,68.50
2017-07-06T22:04:07.105Z,67.00
2017-07-06T22:06:34.772Z,67.50
2017-07-06T22:09:02.515Z,68.40
2017-07-06T22:11:30.107Z,68.80
2017-07-06T22:13:58.035Z,69.70
2017-07-06T22:16:25.589Z,69.50
2017-07-06T22:18:53.257Z,69.50
2017-07-06T22:21:20.820Z,70.70
2017-07-06T22:23:48.473Z,72.10
2017-07-06T22:26:16.208Z,72.80
2017-07-06T22:28:43.880Z,73.70
2017-07-06T22:31:11.792Z,73.50
2017-07-06T22:33:39.326Z,74.70
2017-07-06T22:36:07.065Z,75.50
2017-07-06T22:38:34.997Z,75.80
2017-07-06T22:41:02.545Z,76.80
2017-07-06T22:43:30.232Z,77.00
2017-07-06T22:45:58.171Z,77.20
2017-07-06T22:48:25.704Z,77.50
2017-07-06T22:50:53.455Z,77.70
2017-07-06T22:53:20.972Z,77.90
2017-07-06T22:55:48.488Z,78.10
2017-07-06T22:58:16.041Z,78.30
2017-07-06T23:00:43.561Z,77.70
2017-07-06T23:03:11.156Z,78.50
2017-07-06T23:05:38.739Z,78.60
2017-07-06T23:08:06.248Z,78.40
2017-07-06T23:10:33.934Z,77.90
2017-07-06T23:13:01.486Z,77.50
2017-07-06T23:15:29.181Z,77.40
2017-07-06T23:17:56.767Z,78.20
2017-07-06T23:20:24.324Z,80.40
2017-07-06T23:22:51.855Z,80.80
2017-07-06T23:25:19.487Z,80.90
2017-07-06T23:27:47.046Z,80.30
2017-07-06T23:30:14.587Z,80.10
2017-07-06T23:32:42.102Z,80.00
2017-07-06T23:35:09.662Z,80.00
2017-07-06T23:37:38.058Z,80.80
2017-07-06T23:40:05.603Z,79.90
2017-07-06T23:42:33.254Z,78.90
2017-07-06T23:45:00.786Z,79.70
2017-07-06T23:47:28.324Z,79.00
2017-07-06T23:49:55.893Z,79.70
2017-07-06T23:52:23.394Z,79.80
2017-07-06T23:54:50.908Z,80.00
2017-07-06T23:57:18.515Z,79.60
2017-07-06T23:59:46.032Z,80.40
